createdAt,value
2022-09-01T00:00:03.401Z,101322.03
2022-09-01T00:03:06.935Z,101318.13
2022-09-01T00:06:10.234Z,101316.72
2022-09-01T00:09:16.483Z,101319.78
2022-09-01T00:12:18.641Z,101325.13
2022-09-01T00:15:20.556Z,101326.22
2022-09-01T00:18:22.258Z,101323.81
2022-09-01T00:21:30.324Z,101316.50
2022-09-01T00:24:32.672Z,101328.22
2022-09-01T00:27:34.411Z,101328.84
2022-09-01T00:30:36.693Z,101324.06
2022-09-01T00:33:38.936Z,101321.94
2022-09-01T00:36:42.102Z,101325.72
2022-09-01T00:39:44.121Z,101321.94
2022-09-01T00:42:48.238Z,101323.13
2022-09-01T00:45:51.929Z,101330.44
2022-09-01T00:49:09.683Z,101331.50
2022-09-01T00:52:20.948Z,101321.47
2022-09-01T00:55:29.717Z,101318.50
2022-09-01T00:58:32.833Z,101310.56
2022-09-01T01:01:36.875Z,101319.31
2022-09-01T01:04:38.881Z,101316.94
2022-09-01T01:07:47.262Z,101316.00
2022-09-01T01:10:49.477Z,101311.88
2022-09-01T01:14:12.281Z,101312.94
2022-09-01T01:17:14.117Z,101315.53
2022-09-01T01:20:36.484Z,101317.41
2022-09-01T01:23:49.251Z,101315.16
2022-09-01T01:26:51.978Z,101314.19
2022-09-01T01:29:53.870Z,101309.13
2022-09-01T01:32:58.596Z,101312.66
2022-09-01T01:36:01.949Z,101314.44
2022-09-01T01:39:11.924Z,101315.38
2022-09-01T01:42:13.807Z,101312.88
2022-09-01T01:45:18.020Z,101315.72
2022-09-01T01:48:25.899Z,101313.38
2022-09-01T01:51:29.008Z,101314.28
2022-09-01T01:54:32.549Z,101317.22
2022-09-01T01:57:35.513Z,101322.41
2022-09-01T02:00:38.752Z,101319.72
2022-09-01T02:03:40.688Z,101313.69
2022-09-01T02:06:45.984Z,101322.53
2022-09-01T02:09:48.356Z,101320.78
2022-09-01T02:12:51.134Z,101328.91
2022-09-01T02:15:55.019Z,101320.63
2022-09-01T02:18:56.921Z,101321.78
2022-09-01T02:22:00.511Z,101318.00
2022-09-01T02:25:02.140Z,101317.63
2022-09-01T02:28:05.540Z,101315.56
2022-09-01T02:31:09.107Z,101321.31
2022-09-01T02:34:13.839Z,101321.88
2022-09-01T02:37:16.014Z,101320.44
2022-09-01T02:40:17.758Z,101321.69
2022-09-01T02:43:21.170Z,101315.13
2022-09-01T02:46:24.514Z,101309.59
2022-09-01T02:49:28.724Z,101304.00
2022-09-01T02:52:35.744Z,101300.81
2022-09-01T02:55:39.285Z,101296.84
2022-09-01T02:58:46.705Z,101297.22
2022-09-01T03:01:50.444Z,101297.41
2022-09-01T03:04:54.349Z,101295.84
2022-09-01T03:08:00.495Z,101295.13
2022-09-01T03:11:03.124Z,101298.66
2022-09-01T03:14:06.271Z,101294.44
2022-09-01T03:17:08.014Z,101298.06
2022-09-01T03:20:10.477Z,101289.56
2022-09-01T03:23:15.635Z,101300.03
2022-09-01T03:26:22.721Z,101300.34
2022-09-01T03:29:24.804Z,101297.97
2022-09-01T03:32:26.529Z,101291.34
2022-09-01T03:35:32.143Z,101294.16
2022-09-01T03:38:35.138Z,101297.69
2022-09-01T03:41:39.387Z,101293.72
2022-09-01T03:44:44.265Z,101297.25
2022-09-01T03:47:49.718Z,101297.03
2022-09-01T03:50:51.432Z,101286.81
2022-09-01T03:53:55.122Z,101293.63
2022-09-01T03:57:00.079Z,101292.59
2022-09-01T04:00:02.183Z,101297.78
2022-09-01T04:03:07.715Z,101292.50
2022-09-01T04:06:10.974Z,101291.69
2022-09-01T04:09:13.322Z,101298.50
2022-09-01T04:12:18.210Z,101294.28
2022-09-01T04:15:28.184Z,101292.09
2022-09-01T04:18:30.636Z,101292.31
2022-09-01T04:21:33.631Z,101293.34
2022-09-01T04:24:36.032Z,101293.66
2022-09-01T04:27:40.466Z,101297.28
2022-09-01T04:30:43.385Z,101296.47
2022-09-01T04:33:58.399Z,101295.50
2022-09-01T04:37:00.134Z,101294.59
2022-09-01T04:40:02.917Z,101300.59
2022-09-01T04:43:07.193Z,101296.56
2022-09-01T04:46:11.357Z,101296.25
2022-09-01T04:49:19.696Z,101300.78
2022-09-01T04:52:22.491Z,101300.59
2022-09-01T04:55:24.826Z,101304.03
2022-09-01T04:58:29.230Z,101308.06
2022-09-01T05:01:31.933Z,101305.47
2022-09-01T05:04:33.951Z,101306.41
2022-09-01T05:07:38.117Z,101307.88
2022-09-01T05:10:42.670Z,101300.78
2022-09-01T05:13:57.849Z,101305.78
2022-09-01T05:17:02.116Z,101303.81
2022-09-01T05:20:04.849Z,101304.22
2022-09-01T05:23:06.612Z,101304.84
2022-09-01T05:26:27.749Z,101302.75
2022-09-01T05:29:29.771Z,101305.13
2022-09-01T05:32:33.629Z,101311.69
2022-09-01T05:35:37.348Z,101314.56
2022-09-01T05:38:45.499Z,101314.13
2022-09-01T05:41:49.470Z,101317.13
2022-09-01T05:44:53.126Z,101319.41
2022-09-01T05:47:55.213Z,101324.16
2022-09-01T05:50:59.421Z,101318.53
2022-09-01T05:54:02.045Z,101322.38
2022-09-01T05:57:30.424Z,101326.19
2022-09-01T06:00:34.883Z,101327.41
2022-09-01T06:03:38.030Z,101313.16
2022-09-01T06:07:05.291Z,101319.63
2022-09-01T06:10:08.521Z,101313.03
2022-09-01T06:13:10.636Z,101325.47
2022-09-01T06:16:14.501Z,101324.28
2022-09-01T06:19:16.569Z,101318.66
2022-09-01T06:22:24.071Z,101319.06
2022-09-01T06:25:30.687Z,101322.13
2022-09-01T06:28:33.466Z,101319.91
2022-09-01T06:31:39.425Z,101326.31
2022-09-01T06:34:44.673Z,101317.94
2022-09-01T06:37:48.703Z,101322.69
2022-09-01T06:41:10.592Z,101322.13
2022-09-01T06:44:14.539Z,101332.75
2022-09-01T06:47:24.202Z,101334.78
2022-09-01T06:53:56.401Z,101332.69
2022-09-01T06:58:03.311Z,101335.53
2022-09-01T07:00:28.512Z,101343.34
2022-09-01T07:03:32.213Z,101344.38
2022-09-01T07:10:28.284Z,101350.22
2022-09-01T07:13:39.691Z,101347.00
2022-09-01T07:20:26.564Z,101344.88
2022-09-01T07:23:46.216Z,101352.53
2022-09-01T07:26:50.813Z,101355.50
2022-09-01T07:29:57.436Z,101358.31
2022-09-01T07:33:41.671Z,101357.81
2022-09-01T07:36:25.948Z,101356.97
2022-09-01T07:46:40.756Z,101355.53
2022-09-01T07:50:12.498Z,101358.22
2022-09-01T07:53:12.837Z,101352.13
2022-09-01T07:56:18.981Z,101354.28
2022-09-01T07:59:23.533Z,101355.41
2022-09-01T08:02:33.947Z,101357.38
2022-09-01T08:05:36.195Z,101357.69
2022-09-01T08:08:40.075Z,101361.56
2022-09-01T08:12:01.651Z,101350.22
2022-09-01T08:18:47.962Z,101359.69
2022-09-01T08:21:59.634Z,101367.00
2022-09-01T08:25:09.929Z,101363.22
2022-09-01T08:28:15.073Z,101366.56
2022-09-01T08:31:21.273Z,101358.63
2022-09-01T08:34:23.449Z,101354.81
2022-09-01T08:37:26.076Z,101359.47
2022-09-01T08:40:27.987Z,101362.69
2022-09-01T08:44:15.401Z,101369.69
2022-09-01T08:47:28.896Z,101363.94
2022-09-01T08:50:37.878Z,101361.31
2022-09-01T08:54:06.800Z,101358.00
2022-09-01T08:57:16.990Z,101355.63
2022-09-01T09:00:50.530Z,101369.78
2022-09-01T09:04:42.278Z,101360.84
2022-09-01T09:08:07.323Z,101369.91
2022-09-01T09:11:37.296Z,101363.09
2022-09-01T09:15:15.386Z,101355.34
2022-09-01T09:18:39.152Z,101359.03
2022-09-01T09:21:43.930Z,101348.91
2022-09-01T09:24:56.372Z,101350.06
2022-09-01T09:28:01.258Z,101351.44
2022-09-01T09:31:26.167Z,101343.66
2022-09-01T09:34:28.127Z,101341.38
2022-09-01T09:37:31.698Z,101348.59
2022-09-01T09:40:47.937Z,101343.47
2022-09-01T09:44:00.759Z,101342.94
2022-09-01T09:47:21.839Z,101335.97
2022-09-01T09:50:29.550Z,101337.97
2022-09-01T09:53:35.883Z,101343.25
2022-09-01T09:56:38.133Z,101333.66
2022-09-01T10:00:05.253Z,101331.31
2022-09-01T10:03:15.032Z,101326.75
2022-09-01T10:06:38.324Z,101318.25
2022-09-01T10:09:40.085Z,101314.50
2022-09-01T10:12:42.405Z,101310.81
2022-09-01T10:15:50.997Z,101312.78
2022-09-01T10:18:53.249Z,101310.03
2022-09-01T10:21:55.379Z,101318.59
2022-09-01T10:24:57.377Z,101315.38
2022-09-01T10:28:20.822Z,101311.50
2022-09-01T10:31:23.987Z,101305.13
2022-09-01T10:34:38.393Z,101302.16
2022-09-01T10:37:42.422Z,101294.78
2022-09-01T10:41:07.729Z,101294.44
2022-09-01T10:44:19.336Z,101296.72
2022-09-01T10:47:33.635Z,101292.28
2022-09-01T10:50:37.919Z,101293.41
2022-09-01T10:53:52.865Z,101292.22
2022-09-01T10:56:56.477Z,101286.72
2022-09-01T11:00:39.368Z,101290.59
2022-09-01T11:03:57.262Z,101284.66
2022-09-01T11:07:13.921Z,101287.06
2022-09-01T11:10:34.390Z,101279.94
2022-09-01T11:13:49.924Z,101287.53
2022-09-01T11:17:20.352Z,101274.06
2022-09-01T11:20:26.910Z,101290.56
2022-09-01T11:23:31.326Z,101274.28
2022-09-01T11:26:32.978Z,101275.66
2022-09-01T11:30:02.948Z,101275.84
2022-09-01T11:33:37.164Z,101276.47
2022-09-01T11:36:45.957Z,101274.38
2022-09-01T11:40:02.338Z,101267.09
2022-09-01T11:43:12.738Z,101270.56
2022-09-01T11:46:27.645Z,101272.56
2022-09-01T11:49:39.035Z,101266.81
2022-09-01T11:52:41.493Z,101258.66
2022-09-01T11:55:54.271Z,101257.78
2022-09-01T11:58:56.308Z,101255.41
2022-09-01T12:01:58.851Z,101257.84
2022-09-01T12:05:03.976Z,101258.00
2022-09-01T12:08:18.454Z,101252.75
2022-09-01T12:11:31.605Z,101257.88
2022-09-01T12:14:55.003Z,101253.03
2022-09-01T12:18:09.810Z,101250.97
2022-09-01T12:21:21.116Z,101254.22
2022-09-01T12:24:24.596Z,101247.31
2022-09-01T12:27:26.488Z,101238.25
2022-09-01T12:30:29.138Z,101235.28
2022-09-01T12:33:32.519Z,101241.09
2022-09-01T12:36:36.696Z,101236.84
2022-09-01T12:39:47.903Z,101235.84
2022-09-01T12:42:51.658Z,101228.84
2022-09-01T12:45:53.769Z,101236.75
2022-09-01T12:49:34.890Z,101224.16
2022-09-01T12:52:46.015Z,101239.31
2022-09-01T12:56:16.406Z,101241.47
2022-09-01T12:59:36.418Z,101234.00
2022-09-01T13:02:42.203Z,101227.47
2022-09-01T13:05:55.524Z,101232.44
2022-09-01T13:08:57.615Z,101214.03
2022-09-01T13:12:19.365Z,101212.13
2022-09-01T13:15:22.193Z,101212.41
2022-09-01T13:18:26.421Z,101210.72
2022-09-01T13:21:29.000Z,101212.00
2022-09-01T13:24:31.951Z,101202.72
2022-09-01T13:27:34.066Z,101192.38
2022-09-01T13:30:36.025Z,101186.00
2022-09-01T13:37:01.050Z,101198.72
2022-09-01T13:40:05.224Z,101194.13
2022-09-01T13:43:07.606Z,101194.66
2022-09-01T13:46:09.709Z,101188.88
2022-09-01T13:52:34.517Z,101181.78
2022-09-01T13:55:43.235Z,101179.66
2022-09-01T13:58:45.059Z,101180.38
2022-09-01T14:01:50.317Z,101177.31
2022-09-01T14:04:53.140Z,101174.03
2022-09-01T14:07:55.146Z,101173.28
2022-09-01T14:10:56.852Z,101170.16
2022-09-01T14:13:58.933Z,101166.50
2022-09-01T14:17:01.607Z,101159.47
2022-09-01T14:20:06.577Z,101156.91
2022-09-01T14:23:11.226Z,101160.50
2022-09-01T14:26:15.741Z,101155.19
2022-09-01T14:29:17.686Z,101154.81
2022-09-01T14:32:24.009Z,101147.63
2022-09-01T14:35:26.391Z,101150.72
2022-09-01T14:38:28.166Z,101153.47
2022-09-01T14:41:31.961Z,101147.72
2022-09-01T14:44:38.943Z,101145.75
2022-09-01T14:47:40.749Z,101142.19
2022-09-01T14:50:44.822Z,101147.97
2022-09-01T14:53:46.556Z,101135.78
2022-09-01T15:00:12.559Z,101140.72
2022-09-01T15:03:16.463Z,101124.41
2022-09-01T15:06:23.234Z,101122.59
2022-09-01T15:09:25.619Z,101129.63
2022-09-01T15:12:31.164Z,101118.13
2022-09-01T15:15:33.166Z,101124.41
2022-09-01T15:18:35.483Z,101124.56
2022-09-01T15:21:39.373Z,101114.75
2022-09-01T15:24:41.375Z,101110.13
2022-09-01T15:27:43.276Z,101109.34
2022-09-01T15:30:46.380Z,101110.78
2022-09-01T15:33:48.221Z,101109.84
2022-09-01T15:36:49.989Z,101109.09
2022-09-01T15:39:51.734Z,101106.50
2022-09-01T15:42:55.027Z,101111.41
2022-09-01T15:45:58.587Z,101106.91
2022-09-01T15:49:02.479Z,101105.78
2022-09-01T15:52:04.274Z,101097.97
2022-09-01T15:55:07.473Z,101094.09
2022-09-01T15:58:10.865Z,101104.28
2022-09-01T16:01:12.993Z,101102.16
2022-09-01T16:04:19.928Z,101101.47
2022-09-01T16:07:23.337Z,101096.56
2022-09-01T16:10:32.418Z,101100.75
2022-09-01T16:13:38.098Z,101092.59
2022-09-01T16:17:03.250Z,101091.50
2022-09-01T16:20:25.422Z,101091.97
2022-09-01T16:23:41.817Z,101091.16
2022-09-01T16:26:48.459Z,101079.75
2022-09-01T16:29:55.585Z,101085.44
2022-09-01T16:33:02.101Z,101082.38
2022-09-01T16:36:52.004Z,101083.84
2022-09-01T16:40:10.200Z,101075.91
2022-09-01T16:44:09.659Z,101072.47
2022-09-01T16:47:34.579Z,101066.97
2022-09-01T16:50:39.544Z,101069.22
2022-09-01T16:54:02.862Z,101074.69
2022-09-01T16:57:16.408Z,101073.06
2022-09-01T17:00:21.161Z,101074.47
2022-09-01T17:03:42.451Z,101076.06
2022-09-01T17:07:08.399Z,101078.81
2022-09-01T17:10:42.813Z,101070.81
2022-09-01T17:13:49.442Z,101073.75
2022-09-01T17:16:54.815Z,101070.66
2022-09-01T17:19:57.936Z,101068.84
2022-09-01T17:23:08.689Z,101075.84
2022-09-01T17:26:21.309Z,101062.06
2022-09-01T17:29:28.957Z,101076.22
2022-09-01T17:33:18.489Z,101073.34
2022-09-01T17:36:26.640Z,101077.69
2022-09-01T17:39:36.458Z,101078.47
2022-09-01T17:42:49.770Z,101076.09
2022-09-01T17:46:04.512Z,101076.63
2022-09-01T17:49:45.380Z,101079.97
2022-09-01T17:53:22.068Z,101091.31
2022-09-01T17:56:47.466Z,101087.72
2022-09-01T18:00:28.966Z,101086.63
2022-09-01T18:03:45.437Z,101084.94
2022-09-01T18:07:21.512Z,101086.53
2022-09-01T18:10:45.634Z,101088.56
2022-09-01T18:13:59.812Z,101082.00
2022-09-01T18:17:31.647Z,101085.94
2022-09-01T18:20:45.837Z,101082.78
2022-09-01T18:23:51.645Z,101086.09
2022-09-01T18:26:53.350Z,101092.78
2022-09-01T18:29:55.226Z,101101.22
2022-09-01T18:33:05.161Z,101093.16
2022-09-01T18:36:25.830Z,101099.38
2022-09-01T18:39:46.075Z,101106.53
2022-09-01T18:43:01.819Z,101104.50
2022-09-01T18:46:33.895Z,101108.38
2022-09-01T18:50:05.847Z,101101.13
2022-09-01T18:53:34.048Z,101103.69
2022-09-01T18:56:54.687Z,101101.31
2022-09-01T19:00:19.621Z,101097.97
2022-09-01T19:04:12.493Z,101098.22
2022-09-01T19:07:39.048Z,101099.28
2022-09-01T19:11:07.172Z,101105.25
2022-09-01T19:14:46.831Z,101103.41
2022-09-01T19:18:16.143Z,101109.25
2022-09-01T19:21:27.336Z,101101.34
2022-09-01T19:24:50.289Z,101099.16
2022-09-01T19:28:40.193Z,101100.56
2022-09-01T19:31:46.556Z,101105.72
2022-09-01T19:35:11.871Z,101111.72
2022-09-01T19:38:20.816Z,101116.69
2022-09-01T19:41:37.517Z,101116.19
2022-09-01T19:45:22.192Z,101117.84
2022-09-01T19:48:33.919Z,101116.81
2022-09-01T19:51:57.201Z,101124.25
2022-09-01T19:55:19.723Z,101125.66
2022-09-01T19:58:25.360Z,101118.22
2022-09-01T20:01:39.525Z,101119.66
2022-09-01T20:05:07.765Z,101126.28
2022-09-01T20:08:23.688Z,101123.28
2022-09-01T20:11:58.875Z,101124.53
2022-09-01T20:15:06.164Z,101125.94
2022-09-01T20:18:18.095Z,101123.06
2022-09-01T20:21:21.605Z,101125.97
2022-09-01T20:24:23.487Z,101128.88
2022-09-01T20:28:02.413Z,101131.91
2022-09-01T20:31:12.279Z,101133.00
2022-09-01T20:34:38.361Z,101134.25
2022-09-01T20:37:45.500Z,101131.22
2022-09-01T20:40:49.226Z,101134.25
2022-09-01T20:43:55.088Z,101128.63
2022-09-01T20:46:57.807Z,101133.34
2022-09-01T20:50:02.177Z,101125.91
2022-09-01T20:53:22.098Z,101132.38
2022-09-01T20:56:39.776Z,101138.81
2022-09-01T20:59:56.320Z,101138.94
2022-09-01T21:03:20.734Z,101130.59
2022-09-01T21:06:49.144Z,101137.84
2022-09-01T21:10:14.794Z,101134.97
2022-09-01T21:13:52.993Z,101136.50
2022-09-01T21:17:15.374Z,101133.59
2022-09-01T21:20:54.405Z,101129.50
2022-09-01T21:23:56.188Z,101131.81
2022-09-01T21:27:01.209Z,101131.56
2022-09-01T21:30:08.572Z,101125.09
2022-09-01T21:33:10.522Z,101125.63
2022-09-01T21:36:12.532Z,101129.75
2022-09-01T21:39:14.746Z,101125.75
2022-09-01T21:42:16.529Z,101129.31
2022-09-01T21:45:19.674Z,101127.00
2022-09-01T21:48:21.599Z,101129.19
2022-09-01T21:51:23.344Z,101127.53
2022-09-01T21:54:24.946Z,101128.75
2022-09-01T21:57:26.704Z,101125.59
2022-09-01T22:00:30.881Z,101137.94
2022-09-01T22:03:32.756Z,101133.97
2022-09-01T22:06:34.472Z,101135.88
2022-09-01T22:09:36.399Z,101134.47
2022-09-01T22:12:39.760Z,101135.56
2022-09-01T22:15:44.470Z,101139.53
2022-09-01T22:18:47.475Z,101129.38
2022-09-01T22:21:49.484Z,101136.84
2022-09-01T22:24:51.396Z,101133.69
2022-09-01T22:27:53.097Z,101129.97
2022-09-01T22:30:54.970Z,101135.00
2022-09-01T22:33:57.228Z,101139.06
2022-09-01T22:36:58.929Z,101135.47
2022-09-01T22:40:00.706Z,101129.50
2022-09-01T22:43:03.122Z,101137.16
2022-09-01T22:46:05.949Z,101136.81
2022-09-01T22:49:09.558Z,101140.78
2022-09-01T22:52:11.354Z,101135.25
2022-09-01T22:55:15.538Z,101139.44
2022-09-01T22:58:18.436Z,101133.91
2022-09-01T23:01:23.938Z,101131.81
2022-09-01T23:04:26.004Z,101138.34
2022-09-01T23:07:28.603Z,101136.25
2022-09-01T23:10:30.503Z,101136.63
2022-09-01T23:13:34.124Z,101129.44
2022-09-01T23:16:36.098Z,101124.50
2022-09-01T23:19:38.337Z,101129.88
2022-09-01T23:22:44.649Z,101124.81
2022-09-01T23:25:49.395Z,101123.41
2022-09-01T23:28:54.694Z,101124.59
2022-09-01T23:31:56.635Z,101122.25
2022-09-01T23:34:59.657Z,101119.91
2022-09-01T23:38:01.364Z,101119.19
2022-09-01T23:41:10.425Z,101117.09
2022-09-01T23:44:12.343Z,101118.19
2022-09-01T23:47:14.138Z,101114.88
2022-09-01T23:50:16.029Z,101117.56
2022-09-01T23:53:19.378Z,101107.31
2022-09-01T23:56:24.346Z,101109.31
2022-09-01T23:59:27.432Z,101106.88
